Latest Weather Observations for Rundle Island

IDQ60801

Issued at 12:22 pm EST Saturday 1 October 2022 (issued every 10 minutes, with the page automatically refreshed every 10 minutes)

About weather observations | Map of weather stations | Latest weather observations for QLD | Other Formats
Station Details ID: 039322 Name: RUNDLE ISLAND Lat: -23.53 Lon: 151.28 Height: 19.8 m
Data from the previous 72 hours. | See also: Recent months at Rundle Island
Date/Time
EST
Temp
°C
App
Temp
°C
Dew
Point
°C
Rel
Hum
%
Delta-T
°C
Wind Press
QNH
hPa
Press
MSL
hPa
Rain since
9am
mm
Dir  Spd
km/h
Gust
km/h
Spd
kts
Gust
kts
01/12:00pm - - - - - ESE 20 22 11 12 1015.3 1015.2 -
01/11:30am - - - - - SE 19 22 10 12 1016.0 1015.9 -
01/11:00am - - - - - SE 20 24 11 13 1016.4 1016.3 -
01/10:30am - - - - - SE 20 24 11 13 1016.9 1016.8 -
01/10:00am - - - - - SE 20 24 11 13 1017.2 1017.1 -
01/09:30am - - - - - SSE 19 22 10 12 1017.4 1017.3 -
01/09:00am - - - - - SSE 20 22 11 12 1017.2 1017.1 -
01/08:30am - - - - - SSE 17 20 9 11 1017.0 1016.9 -
01/08:00am - - - - - S 17 20 9 11 1017.1 1017.0 -
01/07:30am - - - - - S 20 22 11 12 1016.7 1016.6 -
01/07:00am - - - - - SSE 20 24 11 13 1016.1 1016.0 -
01/06:30am - - - - - S 19 20 10 11 1015.7 1015.6 -
01/06:00am - - - - - S 11 13 6 7 1015.7 1015.6 -
01/05:30am - - - - - SSW 7 9 4 5 1015.6 1015.5 -
01/05:00am - - - - - SSW 9 9 5 5 1015.2 1015.1 -
01/04:30am - - - - - S 11 13 6 7 1014.8 1014.7 -
01/04:00am - - - - - S 11 13 6 7 1014.7 1014.6 -
01/03:30am - - - - - SSW 9 9 5 5 1014.6 1014.5 -
01/03:00am - - - - - SW 7 9 4 5 1014.6 1014.5 -
01/02:30am - - - - - ENE 4 7 2 4 1014.8 1014.7 -
01/02:00am - - - - - ENE 2 4 1 2 1014.9 1014.8 -
01/01:30am - - - - - ENE 2 6 1 3 1015.2 1015.1 -
01/01:00am - - - - - ENE 6 7 3 4 1015.3 1015.2 -
01/12:30am - - - - - ENE 6 7 3 4 1015.4 1015.3 -
01/12:00am - - - - - NE 9 11 5 6 1015.5 1015.4 -
 
Date/Time
EST
Temp
°C
App
Temp
°C
Dew
Point
°C
Rel
Hum
%
Delta-T
°C
Wind Press
QNH
hPa
Press
MSL
hPa
Rain since
9am
mm
Dir  Spd
km/h
Gust
km/h
Spd
kts
Gust
kts
30/11:30pm - - - - - NE 7 11 4 6 1016.0 1015.9 -
30/11:00pm - - - - - ENE 7 9 4 5 1016.4 1016.3 -
30/10:30pm - - - - - ENE 9 11 5 6 1016.3 1016.2 -
30/10:00pm - - - - - E 11 13 6 7 1016.6 1016.5 -
30/09:30pm - - - - - ENE 11 13 6 7 1016.6 1016.5 -
30/09:00pm - - - - - ENE 11 13 6 7 1016.4 1016.3 -
30/08:30pm - - - - - NNE 13 15 7 8 1016.1 1016.0 -
30/08:00pm - - - - - NE 15 17 8 9 1016.0 1015.9 -
30/07:30pm - - - - - NE 15 19 8 10 1015.6 1015.5 -
30/07:00pm - - - - - NE 17 19 9 10 1015.4 1015.3 -
30/06:30pm - - - - - NE 17 20 9 11 1015.0 1014.9 -
30/06:00pm - - - - - NE 17 20 9 11 1014.8 1014.7 -
30/05:30pm - - - - - NNE 15 17 8 9 1014.4 1014.3 -
30/05:00pm - - - - - NE 13 17 7 9 1014.3 1014.2 -
30/04:30pm - - - - - NE 15 19 8 10 1014.2 1014.1 -
30/04:00pm - - - - - NE 11 15 6 8 1014.1 1014.0 -
30/03:30pm - - - - - ENE 15 17 8 9 1014.1 1014.0 -
30/03:00pm - - - - - NE 13 17 7 9 1014.2 1014.1 -
30/02:30pm - - - - - ENE 20 24 11 13 1014.4 1014.3 -
30/02:00pm - - - - - E 20 24 11 13 1015.0 1014.9 -
30/01:30pm - - - - - ENE 17 19 9 10 1015.5 1015.4 -
30/01:00pm - - - - - E 15 19 8 10 1015.9 1015.8 -
30/12:30pm - - - - - ESE 11 15 6 8 1016.3 1016.2 -
30/12:00pm - - - - - SE 13 15 7 8 1016.7 1016.6 -
30/11:30am - - - - - SE 9 11 5 6 1017.4 1017.3 -
30/11:00am - - - - - SSE 7 7 4 4 1017.8 1017.7 -
30/10:30am - - - - - S 9 11 5 6 1018.0 1017.9 -
30/10:00am - - - - - S 11 13 6 7 1017.9 1017.8 -
30/09:30am - - - - - SSW 15 17 8 9 1017.9 1017.8 -
30/09:00am - - - - - SSW 19 22 10 12 1017.9 1017.8 -
30/08:30am - - - - - SSW 22 28 12 15 1017.9 1017.8 -
30/08:00am - - - - - SSW 20 24 11 13 1017.5 1017.4 -
30/07:30am - - - - - SSW 20 24 11 13 1017.2 1017.1 -
30/07:00am - - - - - SSW 22 26 12 14 1016.9 1016.8 -
30/06:30am - - - - - SSW 19 22 10 12 1016.7 1016.6 -
30/06:00am - - - - - SSW 20 22 11 12 1016.5 1016.4 -
30/05:30am - - - - - SSW 20 22 11 12 1016.4 1016.3 -
30/05:00am - - - - - SSW 19 20 10 11 1016.0 1015.9 -
30/04:30am - - - - - SSW 19 20 10 11 1015.9 1015.8 -
30/04:00am - - - - - SW 13 15 7 8 1015.6 1015.5 -
30/03:30am - - - - - WSW 9 11 5 6 1015.6 1015.5 -
30/03:00am - - - - - WSW 7 9 4 5 1015.3 1015.2 -
30/02:30am - - - - - SW 9 11 5 6 1015.4 1015.3 -
30/02:00am - - - - - SW 11 11 6 6 1015.8 1015.7 -
30/01:30am - - - - - WSW 9 11 5 6 1016.0 1015.9 -
30/01:00am - - - - - WSW 7 9 4 5 1016.3 1016.2 -
30/12:30am - - - - - N 4 6 2 3 1016.4 1016.3 -
30/12:00am - - - - - N 2 4 1 2 1016.6 1016.5 -
 
Date/Time
EST
Temp
°C
App
Temp
°C
Dew
Point
°C
Rel
Hum
%
Delta-T
°C
Wind Press
QNH
hPa
Press
MSL
hPa
Rain since
9am
mm
Dir  Spd
km/h
Gust
km/h
Spd
kts
Gust
kts
29/11:30pm - - - - - E 6 7 3 4 1016.9 1016.8 -
29/11:00pm - - - - - E 4 6 2 3 1016.8 1016.7 -
29/10:30pm - - - - - CALM 0 0 0 0 1016.9 1016.8 -
29/10:00pm - - - - - E 2 4 1 2 1016.8 1016.7 -
29/09:30pm - - - - - E 4 4 2 2 1016.8 1016.7 -
29/09:00pm - - - - - E 4 7 2 4 1016.7 1016.6 -
29/08:30pm - - - - - E 2 4 1 2 1016.6 1016.5 -
29/08:00pm - - - - - E 2 4 1 2 1016.6 1016.5 -
29/07:30pm - - - - - E 4 6 2 3 1016.2 1016.1 -
29/07:00pm - - - - - E 7 9 4 5 1015.9 1015.8 -
29/06:30pm - - - - - E 9 11 5 6 1015.6 1015.5 -
29/06:00pm - - - - - ENE 7 11 4 6 1015.6 1015.5 -
29/05:30pm - - - - - E 9 15 5 8 1015.1 1015.0 -
29/05:00pm - - - - - E 11 13 6 7 1015.0 1014.9 -
29/04:30pm - - - - - E 11 15 6 8 1014.9 1014.8 -
29/04:00pm - - - - - E 11 15 6 8 1015.0 1014.9 -
29/03:30pm - - - - - ESE 11 15 6 8 1014.6 1014.5 -
29/03:00pm - - - - - ESE 13 15 7 8 1014.8 1014.7 -
29/02:30pm - - - - - ESE 13 17 7 9 1014.8 1014.7 -
29/02:00pm - - - - - ESE 15 19 8 10 1015.2 1015.1 -
29/01:30pm - - - - - SE 15 17 8 9 1015.0 1014.9 -
29/01:00pm - - - - - SE 19 20 10 11 1015.4 1015.3 -
29/12:30pm - - - - - SSE 19 24 10 13 1016.4 1016.3 -
29/12:00pm - - - - - SE 15 20 8 11 1016.5 1016.4 -
29/11:30am - - - - - SSE 9 15 5 8 1016.7 1016.6 -
29/11:00am - - - - - SSE 9 13 5 7 1017.0 1016.9 -
29/10:30am - - - - - S 15 19 8 10 1016.9 1016.8 -
29/10:00am - - - - - SW 17 20 9 11 1017.3 1017.2 -
29/09:30am - - - - - WSW 17 20 9 11 1017.6 1017.5 -
29/09:00am - - - - - W 15 17 8 9 1017.1 1017.0 -
29/08:30am - - - - - W 15 20 8 11 1017.2 1017.1 -
29/08:00am - - - - - W 15 19 8 10 1016.7 1016.6 -
29/07:30am - - - - - WNW 15 17 8 9 1016.4 1016.3 -
29/07:00am - - - - - WNW 15 19 8 10 1016.0 1015.9 -
29/06:30am - - - - - WNW 13 19 7 10 1015.5 1015.4 -
29/06:00am - - - - - WNW 15 19 8 10 1015.3 1015.2 -
29/05:30am - - - - - W 17 19 9 10 1015.1 1015.0 -
29/05:00am - - - - - W 13 17 7 9 1014.5 1014.4 -
29/04:30am - - - - - WNW 17 20 9 11 1014.4 1014.3 -
29/04:00am - - - - - WNW 19 22 10 12 1014.3 1014.2 -
29/03:30am - - - - - WNW 17 20 9 11 1014.2 1014.1 -
29/03:00am - - - - - WNW 13 17 7 9 1014.4 1014.3 -
29/02:30am - - - - - NW 19 22 10 12 1014.3 1014.2 -
29/02:00am - - - - - WNW 20 24 11 13 1014.5 1014.4 -
29/01:30am - - - - - WNW 19 20 10 11 1014.7 1014.6 -
29/01:00am - - - - - WNW 15 19 8 10 1014.6 1014.5 -
29/12:30am - - - - - W 15 17 8 9 1014.9 1014.8 -
29/12:00am - - - - - WNW 15 19 8 10 1015.1 1015.0 -
 
Date/Time
EST
Temp
°C
App
Temp
°C
Dew
Point
°C
Rel
Hum
%
Delta-T
°C
Wind Press
QNH
hPa
Press
MSL
hPa
Rain since
9am
mm
Dir  Spd
km/h
Gust
km/h
Spd
kts
Gust
kts
28/11:30pm - - - - - W 17 19 9 10 1015.1 1015.0 -
28/11:00pm - - - - - W 13 17 7 9 1015.3 1015.2 -
28/10:30pm - - - - - WSW 9 11 5 6 1015.0 1014.9 -
28/10:00pm - - - - - NW 13 15 7 8 1015.0 1014.9 -
28/09:30pm - - - - - NW 15 19 8 10 1014.8 1014.7 -
28/09:00pm - - - - - WNW 19 22 10 12 1015.0 1014.9 -
28/08:30pm - - - - - W 20 28 11 15 1015.2 1015.1 -
28/08:00pm - - - - - W 22 26 12 14 1015.4 1015.3 -
28/07:30pm - - - - - WNW 15 28 8 15 1014.9 1014.8 -
28/07:00pm - - - - - NW 11 13 6 7 1014.6 1014.5 -
28/06:30pm - - - - - NNW 15 17 8 9 1014.4 1014.3 -
28/06:00pm - - - - - NNW 17 19 9 10 1013.9 1013.8 -
28/05:30pm - - - - - NNW 17 19 9 10 1013.6 1013.5 -
28/05:00pm - - - - - N 20 22 11 12 1013.3 1013.2 -
28/04:30pm - - - - - NNW 17 17 9 9 1013.0 1012.9 -
28/04:00pm - - - - - NNW 13 15 7 8 1013.0 1012.9 -
28/03:30pm - - - - - N 11 13 6 7 1012.4 1012.3 -
28/03:00pm - - - - - N 13 17 7 9 1012.4 1012.3 -
28/02:30pm - - - - - N 15 17 8 9 1012.3 1012.2 -
28/02:00pm - - - - - NNE 9 11 5 6 1012.4 1012.3 -
28/01:30pm - - - - - N 9 9 5 5 1013.0 1012.9 -
28/01:00pm - - - - - N 6 7 3 4 1013.4 1013.3 -
28/12:30pm - - - - - NNE 7 9 4 5 1013.8 1013.7 -

Other formats

Comma delimited format used in spreadsheet applications
http://www.bom.gov.au/fwo/IDQ60801/IDQ60801.94378.axf

JavaScript Object Notation format (JSON) in row-major order
http://www.bom.gov.au/fwo/IDQ60801/IDQ60801.94378.json

Data quality

Most of these data are generated automatically and are frequently updated. Quality checks on data are not normally performed. It is possible for incorrect values to appear. Refer to information at About Latest Weather Observations and please check the disclaimer before using these data.